sensor_id;sensor_type;location;lat;lon;timestamp;temperature;humidity
2409;DHT22;8463;48.094;7.970;2023-05-29T00:00:25;16.40;1.00
2409;DHT22;8463;48.094;7.970;2023-05-29T00:02:51;16.50;1.00
2409;DHT22;8463;48.094;7.970;2023-05-29T00:05:19;16.50;1.00
2409;DHT22;8463;48.094;7.970;2023-05-29T00:07:45;16.50;1.00
2409;DHT22;8463;48.094;7.970;2023-05-29T00:10:12;16.50;1.00
2409;DHT22;8463;48.094;7.970;2023-05-29T00:12:38;16.50;1.00
2409;DHT22;8463;48.094;7.970;2023-05-29T00:15:05;16.50;1.00
2409;DHT22;8463;48.094;7.970;2023-05-29T00:17:31;16.30;1.00
2409;DHT22;8463;48.094;7.970;2023-05-29T00:20:01;16.30;1.00
2409;DHT22;8463;48.094;7.970;2023-05-29T00:22:30;16.20;1.00
2409;DHT22;8463;48.094;7.970;2023-05-29T00:24:58;16.20;1.00
2409;DHT22;8463;48.094;7.970;2023-05-29T00:27:24;16.10;1.00
2409;DHT22;8463;48.094;7.970;2023-05-29T00:29:50;16.10;1.00
2409;DHT22;8463;48.094;7.970;2023-05-29T00:32:15;16.10;1.00
2409;DHT22;8463;48.094;7.970;2023-05-29T00:34:41;16.00;1.00
2409;DHT22;8463;48.094;7.970;2023-05-29T00:37:06;16.00;1.00
2409;DHT22;8463;48.094;7.970;2023-05-29T00:39:32;16.00;1.00
2409;DHT22;8463;48.094;7.970;2023-05-29T00:41:58;16.00;1.00
2409;DHT22;8463;48.094;7.970;2023-05-29T00:44:23;16.00;1.00
2409;DHT22;8463;48.094;7.970;2023-05-29T00:46:52;16.10;1.00
2409;DHT22;8463;48.094;7.970;2023-05-29T00:49:20;16.10;1.00
2409;DHT22;8463;48.094;7.970;2023-05-29T00:51:47;16.00;1.00
2409;DHT22;8463;48.094;7.970;2023-05-29T00:54:26;15.90;1.00
2409;DHT22;8463;48.094;7.970;2023-05-29T00:56:52;15.80;1.00
2409;DHT22;8463;48.094;7.970;2023-05-29T00:59:18;15.70;1.00
2409;DHT22;8463;48.094;7.970;2023-05-29T01:01:55;15.60;1.00
2409;DHT22;8463;48.094;7.970;2023-05-29T01:04:22;15.60;1.00
2409;DHT22;8463;48.094;7.970;2023-05-29T01:06:51;15.60;1.00
2409;DHT22;8463;48.094;7.970;2023-05-29T01:09:17;15.60;1.00
2409;DHT22;8463;48.094;7.970;2023-05-29T01:24:25;15.40;1.00
2409;DHT22;8463;48.094;7.970;2023-05-29T01:27:09;15.40;1.00
2409;DHT22;8463;48.094;7.970;2023-05-29T01:29:39;15.30;1.00
2409;DHT22;8463;48.094;7.970;2023-05-29T01:32:08;15.20;1.00
2409;DHT22;8463;48.094;7.970;2023-05-29T01:34:34;15.20;1.00
2409;DHT22;8463;48.094;7.970;2023-05-29T01:37:00;15.20;1.00
2409;DHT22;8463;48.094;7.970;2023-05-29T01:39:26;15.20;1.00
2409;DHT22;8463;48.094;7.970;2023-05-29T01:41:55;15.20;1.00
2409;DHT22;8463;48.094;7.970;2023-05-29T01:44:23;15.20;1.00
2409;DHT22;8463;48.094;7.970;2023-05-29T01:46:50;15.30;1.00
2409;DHT22;8463;48.094;7.970;2023-05-29T01:49:16;15.30;1.00
2409;DHT22;8463;48.094;7.970;2023-05-29T01:51:43;15.30;1.00
2409;DHT22;8463;48.094;7.970;2023-05-29T01:54:09;15.40;1.00
2409;DHT22;8463;48.094;7.970;2023-05-29T01:56:35;15.40;1.00
2409;DHT22;8463;48.094;7.970;2023-05-29T01:59:03;15.40;1.00
2409;DHT22;8463;48.094;7.970;2023-05-29T02:01:31;15.40;1.00
2409;DHT22;8463;48.094;7.970;2023-05-29T02:03:59;15.40;1.00
2409;DHT22;8463;48.094;7.970;2023-05-29T02:06:25;15.30;1.00
2409;DHT22;8463;48.094;7.970;2023-05-29T02:11:22;15.20;1.00
2409;DHT22;8463;48.094;7.970;2023-05-29T02:13:48;15.30;1.00
2409;DHT22;8463;48.094;7.970;2023-05-29T02:16:17;15.20;1.00
2409;DHT22;8463;48.094;7.970;2023-05-29T02:18:46;15.10;1.00
2409;DHT22;8463;48.094;7.970;2023-05-29T02:21:11;15.10;1.00
2409;DHT22;8463;48.094;7.970;2023-05-29T02:23:37;15.10;1.00
2409;DHT22;8463;48.094;7.970;2023-05-29T02:26:03;15.00;1.00
2409;DHT22;8463;48.094;7.970;2023-05-29T02:28:29;14.90;1.00
2409;DHT22;8463;48.094;7.970;2023-05-29T02:30:55;14.80;1.00
2409;DHT22;8463;48.094;7.970;2023-05-29T02:35:46;14.70;1.00
2409;DHT22;8463;48.094;7.970;2023-05-29T02:38:12;14.70;1.00
2409;DHT22;8463;48.094;7.970;2023-05-29T02:40:38;14.80;1.00
2409;DHT22;8463;48.094;7.970;2023-05-29T02:43:05;14.90;1.00
2409;DHT22;8463;48.094;7.970;2023-05-29T02:45:31;14.80;1.00
2409;DHT22;8463;48.094;7.970;2023-05-29T02:47:56;14.80;1.00
2409;DHT22;8463;48.094;7.970;2023-05-29T02:50:23;14.90;1.00
2409;DHT22;8463;48.094;7.970;2023-05-29T02:52:49;14.80;1.00
2409;DHT22;8463;48.094;7.970;2023-05-29T02:55:15;14.80;1.00
2409;DHT22;8463;48.094;7.970;2023-05-29T02:57:40;14.70;1.00
2409;DHT22;8463;48.094;7.970;2023-05-29T03:00:07;14.80;1.00
2409;DHT22;8463;48.094;7.970;2023-05-29T03:02:33;14.80;1.00
2409;DHT22;8463;48.094;7.970;2023-05-29T03:05:00;14.70;1.00
2409;DHT22;8463;48.094;7.970;2023-05-29T03:07:26;14.70;1.00
2409;DHT22;8463;48.094;7.970;2023-05-29T03:09:52;14.60;1.00
2409;DHT22;8463;48.094;7.970;2023-05-29T03:12:17;14.50;1.00
2409;DHT22;8463;48.094;7.970;2023-05-29T03:14:44;14.50;1.00
2409;DHT22;8463;48.094;7.970;2023-05-29T03:17:10;14.40;1.00
2409;DHT22;8463;48.094;7.970;2023-05-29T03:19:35;14.30;1.00
2409;DHT22;8463;48.094;7.970;2023-05-29T03:22:02;14.20;1.00
2409;DHT22;8463;48.094;7.970;2023-05-29T03:24:28;14.20;1.00
2409;DHT22;8463;48.094;7.970;2023-05-29T03:26:53;14.20;1.00
2409;DHT22;8463;48.094;7.970;2023-05-29T03:29:19;14.20;1.00
2409;DHT22;8463;48.094;7.970;2023-05-29T03:31:45;14.20;1.00
2409;DHT22;8463;48.094;7.970;2023-05-29T03:34:10;14.30;1.00
2409;DHT22;8463;48.094;7.970;2023-05-29T03:36:36;14.20;1.00
2409;DHT22;8463;48.094;7.970;2023-05-29T03:39:03;14.20;1.00
2409;DHT22;8463;48.094;7.970;2023-05-29T03:41:28;14.10;1.00
2409;DHT22;8463;48.094;7.970;2023-05-29T03:43:54;14.10;1.00
2409;DHT22;8463;48.094;7.970;2023-05-29T03:46:20;14.00;1.00
2409;DHT22;8463;48.094;7.970;2023-05-29T03:48:45;13.90;1.00
2409;DHT22;8463;48.094;7.970;2023-05-29T03:53:37;13.90;1.00
2409;DHT22;8463;48.094;7.970;2023-05-29T03:56:04;14.00;1.00
2409;DHT22;8463;48.094;7.970;2023-05-29T03:58:30;14.10;1.00
2409;DHT22;8463;48.094;7.970;2023-05-29T04:00:56;14.20;1.00
2409;DHT22;8463;48.094;7.970;2023-05-29T04:03:22;14.10;1.00
2409;DHT22;8463;48.094;7.970;2023-05-29T04:05:48;13.90;1.00
2409;DHT22;8463;48.094;7.970;2023-05-29T04:08:14;14.10;1.00
2409;DHT22;8463;48.094;7.970;2023-05-29T04:10:39;14.10;1.00
2409;DHT22;8463;48.094;7.970;2023-05-29T04:13:05;14.00;1.00
2409;DHT22;8463;48.094;7.970;2023-05-29T04:15:33;14.00;1.00
2409;DHT22;8463;48.094;7.970;2023-05-29T04:17:59;13.90;1.00
2409;DHT22;8463;48.094;7.970;2023-05-29T04:20:25;13.90;1.00
2409;DHT22;8463;48.094;7.970;2023-05-29T04:22:53;13.90;1.00
2409;DHT22;8463;48.094;7.970;2023-05-29T04:25:18;14.00;1.00
2409;DHT22;8463;48.094;7.970;2023-05-29T04:27:44;14.10;1.00
2409;DHT22;8463;48.094;7.970;2023-05-29T04:30:17;14.00;1.00
2409;DHT22;8463;48.094;7.970;2023-05-29T04:32:43;14.00;1.00
2409;DHT22;8463;48.094;7.970;2023-05-29T04:35:09;14.20;1.00
2409;DHT22;8463;48.094;7.970;2023-05-29T04:37:35;14.20;1.00
2409;DHT22;8463;48.094;7.970;2023-05-29T04:40:06;14.30;1.00
2409;DHT22;8463;48.094;7.970;2023-05-29T04:42:41;14.30;1.00
2409;DHT22;8463;48.094;7.970;2023-05-29T04:45:07;14.40;1.00
2409;DHT22;8463;48.094;7.970;2023-05-29T04:47:36;14.40;1.00
2409;DHT22;8463;48.094;7.970;2023-05-29T04:50:12;14.40;1.00
2409;DHT22;8463;48.094;7.970;2023-05-29T04:52:38;14.50;1.00
2409;DHT22;8463;48.094;7.970;2023-05-29T04:55:05;14.50;1.00
2409;DHT22;8463;48.094;7.970;2023-05-29T04:57:33;14.60;1.00
2409;DHT22;8463;48.094;7.970;2023-05-29T05:02:25;14.60;1.00
2409;DHT22;8463;48.094;7.970;2023-05-29T05:04:50;14.70;1.00
2409;DHT22;8463;48.094;7.970;2023-05-29T05:07:16;14.80;1.00
2409;DHT22;8463;48.094;7.970;2023-05-29T05:09:42;14.90;1.00
2409;DHT22;8463;48.094;7.970;2023-05-29T05:12:08;15.00;1.00
2409;DHT22;8463;48.094;7.970;2023-05-29T05:14:37;15.00;1.00
2409;DHT22;8463;48.094;7.970;2023-05-29T05:17:06;15.50;1.00
2409;DHT22;8463;48.094;7.970;2023-05-29T05:19:33;15.90;1.00
2409;DHT22;8463;48.094;7.970;2023-05-29T05:21:59;16.20;1.00
2409;DHT22;8463;48.094;7.970;2023-05-29T05:24:27;16.50;1.00
2409;DHT22;8463;48.094;7.970;2023-05-29T05:26:57;16.70;1.00
2409;DHT22;8463;48.094;7.970;2023-05-29T05:29:26;17.00;1.00
2409;DHT22;8463;48.094;7.970;2023-05-29T05:31:51;17.10;1.00
2409;DHT22;8463;48.094;7.970;2023-05-29T05:34:17;17.30;1.00
2409;DHT22;8463;48.094;7.970;2023-05-29T05:36:47;17.50;1.00
2409;DHT22;8463;48.094;7.970;2023-05-29T05:39:18;17.60;1.00
2409;DHT22;8463;48.094;7.970;2023-05-29T05:41:43;17.60;1.00
2409;DHT22;8463;48.094;7.970;2023-05-29T05:44:10;17.50;1.00
2409;DHT22;8463;48.094;7.970;2023-05-29T05:46:35;17.10;1.00
2409;DHT22;8463;48.094;7.970;2023-05-29T05:49:01;16.80;1.00
2409;DHT22;8463;48.094;7.970;2023-05-29T05:51:27;16.70;1.00
2409;DHT22;8463;48.094;7.970;2023-05-29T05:53:55;16.80;1.00
2409;DHT22;8463;48.094;7.970;2023-05-29T05:56:20;16.90;1.00
2409;DHT22;8463;48.094;7.970;2023-05-29T05:58:46;17.10;1.00
2409;DHT22;8463;48.094;7.970;2023-05-29T06:01:14;17.30;1.00
2409;DHT22;8463;48.094;7.970;2023-05-29T06:03:39;17.60;1.00
2409;DHT22;8463;48.094;7.970;2023-05-29T06:06:06;17.70;1.00
2409;DHT22;8463;48.094;7.970;2023-05-29T06:08:34;17.90;1.00
2409;DHT22;8463;48.094;7.970;2023-05-29T06:13:28;18.10;1.00
2409;DHT22;8463;48.094;7.970;2023-05-29T06:15:54;18.30;1.00
2409;DHT22;8463;48.094;7.970;2023-05-29T06:18:22;18.40;1.00
2409;DHT22;8463;48.094;7.970;2023-05-29T06:20:48;18.40;1.00
2409;DHT22;8463;48.094;7.970;2023-05-29T06:23:14;18.40;1.00
2409;DHT22;8463;48.094;7.970;2023-05-29T06:25:39;18.20;1.00
2409;DHT22;8463;48.094;7.970;2023-05-29T06:28:05;18.20;1.00
2409;DHT22;8463;48.094;7.970;2023-05-29T06:30:33;18.20;1.00
2409;DHT22;8463;48.094;7.970;2023-05-29T06:33:02;18.20;1.00
2409;DHT22;8463;48.094;7.970;2023-05-29T06:35:28;18.30;1.00
2409;DHT22;8463;48.094;7.970;2023-05-29T06:37:53;18.50;1.00
2409;DHT22;8463;48.094;7.970;2023-05-29T06:40:19;18.60;1.00
2409;DHT22;8463;48.094;7.970;2023-05-29T06:42:45;18.80;1.00
2409;DHT22;8463;48.094;7.970;2023-05-29T06:45:17;19.00;1.00
2409;DHT22;8463;48.094;7.970;2023-05-29T06:47:43;19.10;1.00
2409;DHT22;8463;48.094;7.970;2023-05-29T06:50:09;19.30;1.00
2409;DHT22;8463;48.094;7.970;2023-05-29T06:52:35;19.20;1.00
2409;DHT22;8463;48.094;7.970;2023-05-29T06:55:01;19.20;1.00
2409;DHT22;8463;48.094;7.970;2023-05-29T06:57:27;19.40;1.00
2409;DHT22;8463;48.094;7.970;2023-05-29T06:59:53;19.40;1.00
2409;DHT22;8463;48.094;7.970;2023-05-29T07:02:19;19.60;1.00
2409;DHT22;8463;48.094;7.970;2023-05-29T07:04:45;19.70;1.00
2409;DHT22;8463;48.094;7.970;2023-05-29T07:07:11;19.80;1.00
2409;DHT22;8463;48.094;7.970;2023-05-29T07:12:05;20.10;1.00
2409;DHT22;8463;48.094;7.970;2023-05-29T07:14:31;20.20;1.00
2409;DHT22;8463;48.094;7.970;2023-05-29T07:16:56;20.30;1.00
2409;DHT22;8463;48.094;7.970;2023-05-29T07:19:22;20.40;1.00
2409;DHT22;8463;48.094;7.970;2023-05-29T07:21:48;20.40;1.00
2409;DHT22;8463;48.094;7.970;2023-05-29T07:24:13;20.30;1.00
2409;DHT22;8463;48.094;7.970;2023-05-29T07:26:39;20.10;1.00
2409;DHT22;8463;48.094;7.970;2023-05-29T07:29:07;20.20;1.00
2409;DHT22;8463;48.094;7.970;2023-05-29T07:31:33;20.20;1.00
2409;DHT22;8463;48.094;7.970;2023-05-29T07:33:58;20.40;1.00
2409;DHT22;8463;48.094;7.970;2023-05-29T07:36:29;20.60;1.00
2409;DHT22;8463;48.094;7.970;2023-05-29T07:38:55;20.40;1.00
2409;DHT22;8463;48.094;7.970;2023-05-29T07:41:23;20.40;1.00
2409;DHT22;8463;48.094;7.970;2023-05-29T07:43:49;20.70;1.00
2409;DHT22;8463;48.094;7.970;2023-05-29T07:46:19;20.90;1.00
2409;DHT22;8463;48.094;7.970;2023-05-29T07:48:45;20.70;1.00
2409;DHT22;8463;48.094;7.970;2023-05-29T07:51:13;20.70;1.00
2409;DHT22;8463;48.094;7.970;2023-05-29T07:53:39;20.80;1.00
2409;DHT22;8463;48.094;7.970;2023-05-29T07:56:05;20.70;1.00
2409;DHT22;8463;48.094;7.970;2023-05-29T07:58:31;20.60;1.00
2409;DHT22;8463;48.094;7.970;2023-05-29T08:00:57;20.60;1.00
2409;DHT22;8463;48.094;7.970;2023-05-29T08:03:23;20.60;1.00
2409;DHT22;8463;48.094;7.970;2023-05-29T08:05:48;20.70;1.00
2409;DHT22;8463;48.094;7.970;2023-05-29T08:08:14;20.70;1.00
2409;DHT22;8463;48.094;7.970;2023-05-29T08:10:40;20.70;1.00
2409;DHT22;8463;48.094;7.970;2023-05-29T08:13:06;20.80;1.00
2409;DHT22;8463;48.094;7.970;2023-05-29T08:15:32;20.70;1.00
2409;DHT22;8463;48.094;7.970;2023-05-29T08:17:57;20.70;1.00
2409;DHT22;8463;48.094;7.970;2023-05-29T08:20:23;20.50;1.00
2409;DHT22;8463;48.094;7.970;2023-05-29T08:22:48;20.70;1.00
2409;DHT22;8463;48.094;7.970;2023-05-29T08:25:14;20.70;1.00
2409;DHT22;8463;48.094;7.970;2023-05-29T08:27:40;20.80;1.00
2409;DHT22;8463;48.094;7.970;2023-05-29T08:30:06;20.90;1.00
2409;DHT22;8463;48.094;7.970;2023-05-29T08:32:32;21.00;1.00
2409;DHT22;8463;48.094;7.970;2023-05-29T08:34:57;20.90;1.00
2409;DHT22;8463;48.094;7.970;2023-05-29T08:37:23;20.90;1.00
2409;DHT22;8463;48.094;7.970;2023-05-29T08:39:50;21.30;1.00
2409;DHT22;8463;48.094;7.970;2023-05-29T08:42:23;21.30;1.00
2409;DHT22;8463;48.094;7.970;2023-05-29T08:44:56;21.40;1.00
2409;DHT22;8463;48.094;7.970;2023-05-29T08:47:26;21.40;1.00
2409;DHT22;8463;48.094;7.970;2023-05-29T08:49:53;21.50;1.00
2409;DHT22;8463;48.094;7.970;2023-05-29T08:52:22;21.60;1.00
2409;DHT22;8463;48.094;7.970;2023-05-29T08:54:48;21.70;1.00
2409;DHT22;8463;48.094;7.970;2023-05-29T08:57:14;21.90;1.00
2409;DHT22;8463;48.094;7.970;2023-05-29T08:59:42;22.20;1.00
2409;DHT22;8463;48.094;7.970;2023-05-29T09:02:10;22.20;1.00
2409;DHT22;8463;48.094;7.970;2023-05-29T09:04:41;22.30;1.00
2409;DHT22;8463;48.094;7.970;2023-05-29T09:07:07;22.40;1.00
2409;DHT22;8463;48.094;7.970;2023-05-29T09:09:34;22.70;1.00
2409;DHT22;8463;48.094;7.970;2023-05-29T09:12:00;23.10;1.00
2409;DHT22;8463;48.094;7.970;2023-05-29T09:14:52;23.50;1.00
2409;DHT22;8463;48.094;7.970;2023-05-29T09:17:18;24.10;1.00
2409;DHT22;8463;48.094;7.970;2023-05-29T09:19:44;24.40;1.00
2409;DHT22;8463;48.094;7.970;2023-05-29T09:22:14;24.70;1.00
2409;DHT22;8463;48.094;7.970;2023-05-29T09:24:46;25.00;1.00
2409;DHT22;8463;48.094;7.970;2023-05-29T09:27:17;25.20;1.00
2409;DHT22;8463;48.094;7.970;2023-05-29T09:29:44;25.30;1.00
2409;DHT22;8463;48.094;7.970;2023-05-29T09:32:15;25.30;1.00
2409;DHT22;8463;48.094;7.970;2023-05-29T09:34:42;25.40;1.00
2409;DHT22;8463;48.094;7.970;2023-05-29T09:37:11;25.40;1.00
2409;DHT22;8463;48.094;7.970;2023-05-29T09:39:50;25.40;1.00
2409;DHT22;8463;48.094;7.970;2023-05-29T09:42:17;25.60;1.00
2409;DHT22;8463;48.094;7.970;2023-05-29T09:44:45;25.90;1.00
2409;DHT22;8463;48.094;7.970;2023-05-29T09:47:18;26.10;1.00
2409;DHT22;8463;48.094;7.970;2023-05-29T09:49:45;26.20;1.00
2409;DHT22;8463;48.094;7.970;2023-05-29T09:52:12;26.20;1.00
2409;DHT22;8463;48.094;7.970;2023-05-29T09:54:40;26.10;1.00
2409;DHT22;8463;48.094;7.970;2023-05-29T09:57:13;26.10;1.00
2409;DHT22;8463;48.094;7.970;2023-05-29T09:59:41;26.20;1.00
2409;DHT22;8463;48.094;7.970;2023-05-29T10:02:10;26.20;1.00
2409;DHT22;8463;48.094;7.970;2023-05-29T10:04:37;26.20;1.00
2409;DHT22;8463;48.094;7.970;2023-05-29T10:07:10;26.30;1.00
2409;DHT22;8463;48.094;7.970;2023-05-29T10:09:42;26.40;1.00
2409;DHT22;8463;48.094;7.970;2023-05-29T10:12:12;26.50;1.00
2409;DHT22;8463;48.094;7.970;2023-05-29T10:14:40;26.60;1.00
2409;DHT22;8463;48.094;7.970;2023-05-29T10:17:07;26.70;1.00
2409;DHT22;8463;48.094;7.970;2023-05-29T10:19:36;26.70;1.00
2409;DHT22;8463;48.094;7.970;2023-05-29T10:22:04;26.70;1.00
2409;DHT22;8463;48.094;7.970;2023-05-29T10:24:32;26.70;1.00
2409;DHT22;8463;48.094;7.970;2023-05-29T10:26:58;26.80;1.00
2409;DHT22;8463;48.094;7.970;2023-05-29T10:37:36;27.40;1.00
2409;DHT22;8463;48.094;7.970;2023-05-29T10:40:06;27.30;1.00
2409;DHT22;8463;48.094;7.970;2023-05-29T10:45:06;27.30;1.00
2409;DHT22;8463;48.094;7.970;2023-05-29T10:47:31;27.20;1.00
2409;DHT22;8463;48.094;7.970;2023-05-29T10:50:00;27.40;1.00
2409;DHT22;8463;48.094;7.970;2023-05-29T10:52:26;27.50;1.00
2409;DHT22;8463;48.094;7.970;2023-05-29T10:54:55;27.70;1.00
2409;DHT22;8463;48.094;7.970;2023-05-29T10:57:23;27.70;1.00
2409;DHT22;8463;48.094;7.970;2023-05-29T10:59:57;27.60;1.00
2409;DHT22;8463;48.094;7.970;2023-05-29T11:02:24;27.70;1.00
2409;DHT22;8463;48.094;7.970;2023-05-29T11:07:51;27.80;1.00
2409;DHT22;8463;48.094;7.970;2023-05-29T11:10:45;27.80;1.00
2409;DHT22;8463;48.094;7.970;2023-05-29T11:13:34;28.00;1.00
2409;DHT22;8463;48.094;7.970;2023-05-29T11:18:44;28.10;1.00
2409;DHT22;8463;48.094;7.970;2023-05-29T11:23:53;28.40;1.00
2409;DHT22;8463;48.094;7.970;2023-05-29T11:26:21;28.60;1.00
2409;DHT22;8463;48.094;7.970;2023-05-29T11:28:49;28.70;1.00
2409;DHT22;8463;48.094;7.970;2023-05-29T11:31:15;28.90;1.00
2409;DHT22;8463;48.094;7.970;2023-05-29T11:33:48;29.00;1.00
2409;DHT22;8463;48.094;7.970;2023-05-29T11:36:18;29.00;1.00
2409;DHT22;8463;48.094;7.970;2023-05-29T11:38:45;29.10;1.00
2409;DHT22;8463;48.094;7.970;2023-05-29T11:41:11;29.20;1.00
2409;DHT22;8463;48.094;7.970;2023-05-29T11:43:37;29.20;1.00
2409;DHT22;8463;48.094;7.970;2023-05-29T11:46:19;29.10;1.00
2409;DHT22;8463;48.094;7.970;2023-05-29T11:48:48;29.00;1.00
2409;DHT22;8463;48.094;7.970;2023-05-29T11:51:14;28.90;1.00
2409;DHT22;8463;48.094;7.970;2023-05-29T11:53:43;29.00;1.00
2409;DHT22;8463;48.094;7.970;2023-05-29T11:56:10;29.10;1.00
2409;DHT22;8463;48.094;7.970;2023-05-29T11:58:39;29.10;1.00
2409;DHT22;8463;48.094;7.970;2023-05-29T12:01:09;28.90;1.00
2409;DHT22;8463;48.094;7.970;2023-05-29T12:03:41;28.90;1.00
2409;DHT22;8463;48.094;7.970;2023-05-29T12:06:10;28.80;1.00
2409;DHT22;8463;48.094;7.970;2023-05-29T12:08:37;28.90;1.00
2409;DHT22;8463;48.094;7.970;2023-05-29T12:11:04;28.90;1.00
2409;DHT22;8463;48.094;7.970;2023-05-29T12:13:32;28.80;1.00
2409;DHT22;8463;48.094;7.970;2023-05-29T12:16:00;28.90;1.00
2409;DHT22;8463;48.094;7.970;2023-05-29T12:18:28;29.00;1.00
2409;DHT22;8463;48.094;7.970;2023-05-29T12:21:01;29.10;1.00
2409;DHT22;8463;48.094;7.970;2023-05-29T12:23:28;29.10;1.00
2409;DHT22;8463;48.094;7.970;2023-05-29T12:25:58;29.10;1.00
2409;DHT22;8463;48.094;7.970;2023-05-29T12:28:25;29.00;1.00
2409;DHT22;8463;48.094;7.970;2023-05-29T12:30:50;29.10;1.00
2409;DHT22;8463;48.094;7.970;2023-05-29T12:33:29;29.20;1.00
2409;DHT22;8463;48.094;7.970;2023-05-29T12:36:07;29.40;1.00
2409;DHT22;8463;48.094;7.970;2023-05-29T12:38:49;29.60;1.00
2409;DHT22;8463;48.094;7.970;2023-05-29T12:41:41;29.70;1.00
2409;DHT22;8463;48.094;7.970;2023-05-29T12:44:07;29.80;1.00
2409;DHT22;8463;48.094;7.970;2023-05-29T12:46:42;29.80;1.00
2409;DHT22;8463;48.094;7.970;2023-05-29T12:49:16;29.90;1.00
2409;DHT22;8463;48.094;7.970;2023-05-29T12:51:43;30.00;1.00
2409;DHT22;8463;48.094;7.970;2023-05-29T12:54:15;29.90;1.00
2409;DHT22;8463;48.094;7.970;2023-05-29T12:56:42;30.00;1.00
2409;DHT22;8463;48.094;7.970;2023-05-29T12:59:08;29.80;1.00
2409;DHT22;8463;48.094;7.970;2023-05-29T13:01:37;29.80;1.00
2409;DHT22;8463;48.094;7.970;2023-05-29T13:04:07;29.90;1.00
2409;DHT22;8463;48.094;7.970;2023-05-29T13:06:37;29.90;1.00
2409;DHT22;8463;48.094;7.970;2023-05-29T13:09:03;29.80;1.00
2409;DHT22;8463;48.094;7.970;2023-05-29T13:11:30;29.50;1.00
2409;DHT22;8463;48.094;7.970;2023-05-29T13:13:56;29.10;1.00
2409;DHT22;8463;48.094;7.970;2023-05-29T13:16:24;29.10;1.00
2409;DHT22;8463;48.094;7.970;2023-05-29T13:18:49;29.40;1.00
2409;DHT22;8463;48.094;7.970;2023-05-29T13:21:15;29.60;1.00
2409;DHT22;8463;48.094;7.970;2023-05-29T13:23:41;29.60;1.00
2409;DHT22;8463;48.094;7.970;2023-05-29T13:26:06;29.50;1.00
2409;DHT22;8463;48.094;7.970;2023-05-29T13:28:32;29.50;1.00
2409;DHT22;8463;48.094;7.970;2023-05-29T13:30:58;29.70;1.00
2409;DHT22;8463;48.094;7.970;2023-05-29T13:33:24;29.60;1.00
2409;DHT22;8463;48.094;7.970;2023-05-29T13:35:51;29.70;1.00
2409;DHT22;8463;48.094;7.970;2023-05-29T13:38:17;29.70;1.00
2409;DHT22;8463;48.094;7.970;2023-05-29T13:40:51;29.80;1.00
2409;DHT22;8463;48.094;7.970;2023-05-29T13:43:17;29.70;1.00
2409;DHT22;8463;48.094;7.970;2023-05-29T13:45:42;29.50;1.00
2409;DHT22;8463;48.094;7.970;2023-05-29T13:48:08;29.50;1.00
2409;DHT22;8463;48.094;7.970;2023-05-29T13:50:33;29.60;1.00
2409;DHT22;8463;48.094;7.970;2023-05-29T13:53:02;29.70;1.00
2409;DHT22;8463;48.094;7.970;2023-05-29T13:55:30;29.80;1.00
2409;DHT22;8463;48.094;7.970;2023-05-29T13:57:56;29.70;1.00
2409;DHT22;8463;48.094;7.970;2023-05-29T14:00:23;29.60;1.00
2409;DHT22;8463;48.094;7.970;2023-05-29T14:02:53;29.50;1.00
2409;DHT22;8463;48.094;7.970;2023-05-29T14:05:19;29.50;1.00
2409;DHT22;8463;48.094;7.970;2023-05-29T14:07:45;29.20;1.00
2409;DHT22;8463;48.094;7.970;2023-05-29T14:10:10;29.20;1.00
2409;DHT22;8463;48.094;7.970;2023-05-29T14:12:36;29.70;1.00
2409;DHT22;8463;48.094;7.970;2023-05-29T14:15:02;29.80;1.00
2409;DHT22;8463;48.094;7.970;2023-05-29T14:17:28;29.80;1.00
2409;DHT22;8463;48.094;7.970;2023-05-29T14:19:54;29.70;1.00
2409;DHT22;8463;48.094;7.970;2023-05-29T14:22:20;29.60;1.00
2409;DHT22;8463;48.094;7.970;2023-05-29T14:24:46;29.70;1.00
2409;DHT22;8463;48.094;7.970;2023-05-29T14:27:12;29.60;1.00
2409;DHT22;8463;48.094;7.970;2023-05-29T14:29:37;29.50;1.00
2409;DHT22;8463;48.094;7.970;2023-05-29T14:32:03;29.50;1.00
2409;DHT22;8463;48.094;7.970;2023-05-29T14:34:29;29.70;1.00
2409;DHT22;8463;48.094;7.970;2023-05-29T14:41:47;29.50;1.00
2409;DHT22;8463;48.094;7.970;2023-05-29T14:44:13;29.20;1.00
2409;DHT22;8463;48.094;7.970;2023-05-29T14:46:39;29.20;1.00
2409;DHT22;8463;48.094;7.970;2023-05-29T14:51:34;29.20;1.00
2409;DHT22;8463;48.094;7.970;2023-05-29T14:54:02;29.10;1.00
2409;DHT22;8463;48.094;7.970;2023-05-29T14:56:28;29.10;1.00
2409;DHT22;8463;48.094;7.970;2023-05-29T14:58:53;29.10;1.00
2409;DHT22;8463;48.094;7.970;2023-05-29T15:03:45;29.20;1.00
2409;DHT22;8463;48.094;7.970;2023-05-29T15:06:11;29.20;1.00
2409;DHT22;8463;48.094;7.970;2023-05-29T15:08:40;29.40;1.00
2409;DHT22;8463;48.094;7.970;2023-05-29T15:11:08;29.30;1.00
2409;DHT22;8463;48.094;7.970;2023-05-29T15:13:35;29.40;1.00
2409;DHT22;8463;48.094;7.970;2023-05-29T15:16:00;29.60;1.00
2409;DHT22;8463;48.094;7.970;2023-05-29T15:20:54;29.90;1.00
2409;DHT22;8463;48.094;7.970;2023-05-29T15:25:51;29.80;1.00
2409;DHT22;8463;48.094;7.970;2023-05-29T15:28:17;29.50;1.00
2409;DHT22;8463;48.094;7.970;2023-05-29T15:30:45;29.30;1.00
2409;DHT22;8463;48.094;7.970;2023-05-29T15:33:11;29.10;1.00
2409;DHT22;8463;48.094;7.970;2023-05-29T15:35:37;28.90;1.00
2409;DHT22;8463;48.094;7.970;2023-05-29T15:38:06;29.00;1.00
2409;DHT22;8463;48.094;7.970;2023-05-29T15:40:32;28.90;1.00
2409;DHT22;8463;48.094;7.970;2023-05-29T15:42:58;28.90;1.00
2409;DHT22;8463;48.094;7.970;2023-05-29T15:45:24;28.90;1.00
2409;DHT22;8463;48.094;7.970;2023-05-29T15:47:52;28.80;1.00
2409;DHT22;8463;48.094;7.970;2023-05-29T15:50:18;28.70;1.00
2409;DHT22;8463;48.094;7.970;2023-05-29T15:52:44;28.70;1.00
2409;DHT22;8463;48.094;7.970;2023-05-29T15:57:36;28.90;1.00
2409;DHT22;8463;48.094;7.970;2023-05-29T16:00:02;28.70;1.00
2409;DHT22;8463;48.094;7.970;2023-05-29T16:02:28;28.70;1.00
2409;DHT22;8463;48.094;7.970;2023-05-29T16:04:54;28.60;1.00
2409;DHT22;8463;48.094;7.970;2023-05-29T16:09:46;28.40;1.00
2409;DHT22;8463;48.094;7.970;2023-05-29T16:14:39;28.10;1.00
2409;DHT22;8463;48.094;7.970;2023-05-29T16:17:06;28.00;1.00
2409;DHT22;8463;48.094;7.970;2023-05-29T16:19:33;27.90;1.00
2409;DHT22;8463;48.094;7.970;2023-05-29T16:21:58;27.80;1.00
2409;DHT22;8463;48.094;7.970;2023-05-29T16:26:53;27.50;1.00
2409;DHT22;8463;48.094;7.970;2023-05-29T16:31:45;27.40;1.00
2409;DHT22;8463;48.094;7.970;2023-05-29T16:34:11;27.30;1.00
2409;DHT22;8463;48.094;7.970;2023-05-29T16:36:36;27.30;1.00
2409;DHT22;8463;48.094;7.970;2023-05-29T16:39:02;27.30;1.00
2409;DHT22;8463;48.094;7.970;2023-05-29T16:41:28;27.30;1.00
2409;DHT22;8463;48.094;7.970;2023-05-29T16:43:53;27.20;1.00
2409;DHT22;8463;48.094;7.970;2023-05-29T16:46:19;27.00;1.00
2409;DHT22;8463;48.094;7.970;2023-05-29T16:51:11;26.90;1.00
2409;DHT22;8463;48.094;7.970;2023-05-29T16:53:38;26.80;1.00
2409;DHT22;8463;48.094;7.970;2023-05-29T16:56:05;26.80;1.00
2409;DHT22;8463;48.094;7.970;2023-05-29T17:00:58;26.50;1.00
2409;DHT22;8463;48.094;7.970;2023-05-29T17:05:50;26.50;1.00
2409;DHT22;8463;48.094;7.970;2023-05-29T17:08:15;26.40;1.00
2409;DHT22;8463;48.094;7.970;2023-05-29T17:10:42;26.30;1.00
2409;DHT22;8463;48.094;7.970;2023-05-29T17:13:10;26.30;1.00
2409;DHT22;8463;48.094;7.970;2023-05-29T17:15:36;26.10;1.00
2409;DHT22;8463;48.094;7.970;2023-05-29T17:18:02;26.10;1.00
2409;DHT22;8463;48.094;7.970;2023-05-29T17:20:28;26.00;1.00
2409;DHT22;8463;48.094;7.970;2023-05-29T17:22:55;25.90;1.00
2409;DHT22;8463;48.094;7.970;2023-05-29T17:25:21;25.80;1.00
2409;DHT22;8463;48.094;7.970;2023-05-29T17:27:47;25.80;1.00
2409;DHT22;8463;48.094;7.970;2023-05-29T17:30:14;25.70;1.00
2409;DHT22;8463;48.094;7.970;2023-05-29T17:35:07;25.70;1.00
2409;DHT22;8463;48.094;7.970;2023-05-29T17:37:34;25.70;1.00
2409;DHT22;8463;48.094;7.970;2023-05-29T17:42:25;25.60;1.00